Airfield :
LOGIN :

Register | Disclaimer

   EN    FR    IT 

 










Legend :    VFR   Marginal VFR   IFR   Intensive IFR   Very Intensive IFR
Visi :
Ceiling :
>= 8 km
>= 3000ft
5 to 8 km
1000 to 3000 ft
1500m to 5 km
500 to 1000 ft
800 to 1500m
200 to 500 ft
< 800m
< 200 ft
Symbols :   Thunderstorms  Fog  Heavy snow  Heavy precipitations  Wind > 20 kt
SIGMETs :     Misc.  Thunderstorms  Icing  Turbulence  Mountain Waves  Volcanic Ashes






- Airport Elevation : 396 ft


LFOZ - Orléans St Denis

CURRENT METAR :
  • 212000Z AUTO 17007KT 9999 FEW030 SCT041 BKN130 07/06 Q1003

EXPIRED METARs :
  • 211930Z AUTO 16007KT 9999 SCT026 BKN033 OVC045 08/06 Q1003
  • 211900Z AUTO 17006KT 9999 BKN030 BKN036 OVC044 07/06 Q1003
  • 211830Z AUTO 16007KT 9999 SCT037 BKN044 OVC050 07/06 Q1003
  • 211800Z AUTO 15008KT 9999 BKN048 OVC056 08/06 Q1003
  • 211730Z AUTO 16006KT 9999 FEW049 BKN058 OVC074 08/06 Q1003

TAF N/A



MET'MAP, your aeronautical weather chart ! - Copyright ORBIFLY December 2007 - Disclaimer

ORBIFLY MET'MAP TEAM :

Programming & Development : Alexandra Zaïnal
Concept & Development : Baudouin d'Aumeries
Co-Development & Prog : Marc-Olivier Méhu
Technical & hardware support : Manuel Goepfert

Contact : metmap@orbifly.com




SOURCES & CREDITS :

   NOAA